Time;durP1;ratioP1;P1;durP2;ratioP2;P2;SDS_P1;SDS_P2;PMS_P1;PMS_P2;Temp;Humidity;BMP_temperature;BMP_pressure;BME280_temperature;BME280_humidity;BME280_pressure;Samples;Min_cycle;Max_cycle;Signal;HPM_P1;HPM_P2
2022/06/22 00:00:11;;;;;;;16.35;4.13;;;;;;;19.80;68.70;95343.59;5069221;28;20556;-65
2022/06/22 00:02:40;;;;;;;20.30;5.03;;;;;;;19.66;70.90;95332.94;5057745;28;20033;-64
2022/06/22 00:05:14;;;;;;;16.00;4.72;;;;;;;19.60;72.21;95328.44;5068240;28;20028;-64
2022/06/22 00:07:43;;;;;;;26.45;5.07;;;;;;;19.73;71.97;95323.03;5068979;28;20123;-65
2022/06/22 00:10:14;;;;;;;20.35;4.78;;;;;;;19.80;72.54;95324.91;5069126;28;20031;-65
2022/06/22 00:12:40;;;;;;;18.65;5.15;;;;;;;19.76;72.56;95321.81;5062954;28;20040;-64
2022/06/22 00:15:27;;;;;;;19.48;4.72;;;;;;;19.78;73.16;95327.78;5068808;28;20170;-64
2022/06/22 00:17:53;;;;;;;27.85;5.85;;;;;;;19.76;75.79;95329.84;5060815;28;20028;-65
2022/06/22 00:20:27;;;;;;;28.15;5.55;;;;;;;19.66;76.58;95324.91;5068077;28;20021;-65
2022/06/22 00:22:54;;;;;;;17.50;4.38;;;;;;;19.68;74.84;95319.38;5068901;28;20048;-65
2022/06/22 00:25:40;;;;;;;21.25;4.70;;;;;;;19.66;74.94;95319.56;5069723;28;20471;-64
2022/06/22 00:28:28;;;;;;;24.20;6.32;;;;;;;19.65;76.01;95325.13;5068537;28;20036;-64
2022/06/22 00:31:03;;;;;;;24.65;5.18;;;;;;;19.59;76.77;95324.13;5069060;28;20124;-64
2022/06/22 00:33:28;;;;;;;;;;;;;;;19.61;76.96;95327.41;5069653;28;20039;-64
2022/06/22 00:36:13;;;;;;;30.88;9.52;;;;;;;19.60;76.54;95328.44;5068033;28;19917;-64
2022/06/22 00:38:39;;;;;;;23.73;6.13;;;;;;;19.68;76.25;95330.06;5066866;28;20115;-65
2022/06/22 00:41:21;;;;;;;25.00;5.38;;;;;;;19.74;76.45;95329.22;5068885;28;20129;-64
2022/06/22 00:43:47;;;;;;;26.00;5.82;;;;;;;19.69;76.79;95319.16;5069049;28;20016;-65
2022/06/22 00:46:16;;;;;;;24.45;4.90;;;;;;;19.72;77.08;95325.94;5068881;28;20104;-65
2022/06/22 00:48:43;;;;;;;26.20;5.47;;;;;;;19.74;76.44;95332.69;5071943;28;20395;-65
2022/06/22 00:51:16;;;;;;;19.60;4.85;;;;;;;19.74;76.83;95339.91;5069124;28;20025;-65
2022/06/22 00:53:58;;;;;;;26.75;6.85;;;;;;;19.83;76.98;95349.31;5072662;28;20029;-65
2022/06/22 00:56:49;;;;;;;19.50;5.28;;;;;;;19.94;77.01;95374.59;5072763;28;20052;-65
2022/06/22 00:59:18;;;;;;;28.50;6.70;;;;;;;19.84;79.26;95390.22;5072658;28;20024;-65
2022/06/22 01:02:02;;;;;;;28.27;5.00;;;;;;;19.78;77.85;95394.53;5069037;28;20028;-65
2022/06/22 01:04:38;;;;;;;20.73;4.50;;;;;;;19.75;78.17;95390.41;5070508;28;20434;-65
2022/06/22 01:07:50;;;;;;;24.02;6.20;;;;;;;19.74;78.81;95390.66;5072332;28;20529;-65
2022/06/22 01:10:33;;;;;;;20.88;5.43;;;;;;;19.74;78.35;95378.09;5043488;28;20044;-65
2022/06/22 01:13:13;;;;;;;19.35;4.88;;;;;;;19.71;78.76;95378.50;5072308;28;20032;-64
2022/06/22 01:16:20;;;;;;;24.15;5.15;;;;;;;19.56;79.79;95377.91;5060030;28;20051;-65
2022/06/22 01:18:58;;;;;;;17.83;5.70;;;;;;;19.48;79.98;95376.28;4990384;28;20057;-64
2022/06/22 01:21:28;;;;;;;21.70;5.07;;;;;;;19.49;79.74;95377.94;4990797;28;20555;-64
2022/06/22 01:24:00;;;;;;;18.85;4.82;;;;;;;19.41;80.37;95373.59;5033447;28;20037;-64
2022/06/22 01:26:59;;;;;;;23.73;5.57;;;;;;;19.30;81.92;95368.88;5066560;28;20020;-64
2022/06/22 01:29:26;;;;;;;27.85;4.85;;;;;;;19.21;81.86;95372.78;5067743;28;20033;-64
2022/06/22 01:32:04;;;;;;;24.67;5.07;;;;;;;19.21;83.70;95378.13;5071754;28;20476;-65
2022/06/22 01:34:41;;;;;;;22.98;4.80;;;;;;;19.15;83.14;95371.75;5071991;28;20447;-64
2022/06/22 01:37:13;;;;;;;21.40;6.10;;;;;;;19.10;83.90;95368.88;5071695;28;20433;-65
2022/06/22 01:39:39;;;;;;;25.80;5.60;;;;;;;19.07;85.54;95359.41;5053868;28;20554;-65
2022/06/22 01:42:23;;;;;;;25.83;6.28;;;;;;;19.09;84.36;95365.38;5071449;28;20033;-65
2022/06/22 01:45:03;;;;;;;28.20;5.60;;;;;;;19.25;83.02;95366.00;5071687;28;20528;-65
2022/06/22 01:47:42;;;;;;;29.92;5.47;;;;;;;19.21;83.13;95364.78;5071706;28;20034;-65
2022/06/22 01:50:21;;;;;;;25.30;5.32;;;;;;;19.22;84.39;95372.56;5071518;28;20060;-65
2022/06/22 01:52:52;;;;;;;23.30;5.35;;;;;;;19.11;86.14;95371.31;5061974;28;20415;-65
2022/06/22 01:55:39;;;;;;;17.45;5.13;;;;;;;18.97;88.59;95373.13;5071514;28;20020;-65
2022/06/22 01:58:13;;;;;;;33.47;5.07;;;;;;;18.93;88.35;95379.06;5056735;28;20048;-65
2022/06/22 02:00:41;;;;;;;28.23;4.93;;;;;;;18.88;89.15;95377.00;5053921;28;20495;-65
2022/06/22 02:03:15;;;;;;;21.52;5.30;;;;;;;18.94;88.97;95348.72;5053247;28;20055;-65
2022/06/22 02:05:49;;;;;;;26.17;6.20;;;;;;;19.04;89.94;95325.97;5071319;28;20028;-65
2022/06/22 02:08:21;;;;;;;29.75;5.40;;;;;;;19.02;90.04;95320.03;5070852;28;20090;-64
2022/06/22 02:10:49;;;;;;;34.38;6.90;;;;;;;18.95;91.23;95326.34;5071096;28;20037;-65
2022/06/22 02:13:55;;;;;;;25.92;6.53;;;;;;;18.81;90.02;95321.00;5070807;28;20082;-64
2022/06/22 02:16:26;;;;;;;23.85;5.28;;;;;;;18.76;89.37;95304.78;5068273;28;20125;-65
2022/06/22 02:18:57;;;;;;;21.58;6.55;;;;;;;18.80;89.08;95298.00;5069278;28;20039;-64
2022/06/22 02:21:44;;;;;;;30.73;6.20;;;;;;;18.67;91.33;95301.47;5070597;28;20041;-65
2022/06/22 02:24:36;;;;;;;17.70;6.07;;;;;;;18.56;94.78;95302.06;5070431;28;20076;-65
2022/06/22 02:27:12;;;;;;;31.15;10.07;;;;;;;18.65;91.70;95306.19;5065561;28;20108;-64
2022/06/22 02:29:42;;;;;;;24.77;6.53;;;;;;;18.81;89.90;95313.00;5070548;28;20120;-64
2022/06/22 02:32:12;;;;;;;30.35;6.22;;;;;;;19.00;89.39;95316.72;5070952;28;20090;-64
2022/06/22 02:34:41;;;;;;;29.58;6.38;;;;;;;18.95;88.38;95327.16;5070655;28;20073;-64
2022/06/22 02:37:08;;;;;;;35.70;6.30;;;;;;;18.82;89.21;95332.50;5070437;28;20055;-64
2022/06/22 02:39:39;;;;;;;23.98;5.97;;;;;;;18.81;88.57;95342.31;5070735;28;20062;-65
2022/06/22 02:44:50;;;;;;;30.42;6.55;;;;;;;18.60;90.79;95344.13;5070551;28;20055;-65
2022/06/22 02:47:26;;;;;;;22.42;6.60;;;;;;;18.58;91.41;95337.38;5070172;28;20113;-65
2022/06/22 02:50:03;;;;;;;22.90;5.63;;;;;;;18.68;90.30;95339.63;5070280;28;20483;-65
2022/06/22 02:52:37;;;;;;;30.92;10.40;;;;;;;18.80;89.26;95337.22;5070242;28;20048;-65
2022/06/22 02:55:03;;;;;;;37.80;11.43;;;;;;;18.93;89.66;95331.06;5070458;28;20029;-65
2022/06/22 02:57:56;;;;;;;29.45;7.93;;;;;;;18.93;89.73;95336.41;5070182;28;20052;-65
2022/06/22 03:00:28;;;;;;;20.58;6.00;;;;;;;18.80;90.30;95332.69;5070334;28;20068;-65
2022/06/22 03:03:01;;;;;;;22.27;6.90;;;;;;;18.73;90.22;95321.19;5069861;28;20020;-65
2022/06/22 03:05:28;;;;;;;22.27;6.07;;;;;;;18.75;90.27;95319.94;5069849;28;20439;-65
2022/06/22 03:07:59;;;;;;;26.50;6.82;;;;;;;18.76;91.04;95310.13;5069685;28;20491;-65
2022/06/22 03:10:30;;;;;;;29.55;6.65;;;;;;;18.67;90.71;95311.31;5069691;28;20036;-65
2022/06/22 03:12:57;;;;;;;22.45;6.68;;;;;;;18.62;91.79;95303.94;5051744;28;20484;-65
2022/06/22 03:15:27;;;;;;;25.15;6.28;;;;;;;18.60;91.59;95303.31;5065611;28;20048;-65
2022/06/22 03:17:56;;;;;;;26.02;6.03;;;;;;;18.61;91.66;95297.78;5067987;28;20030;-65
2022/06/22 03:20:24;;;;;;;27.05;5.88;;;;;;;18.65;91.73;95286.69;5069863;28;20479;-65
2022/06/22 03:22:53;;;;;;;14.82;4.88;;;;;;;18.69;90.60;95287.97;5069856;28;20035;-65
2022/06/22 03:25:31;;;;;;;26.52;6.18;;;;;;;18.73;90.59;95267.88;5068666;28;20024;-65
2022/06/22 03:28:08;;;;;;;21.52;6.13;;;;;;;18.73;90.88;95270.53;5069289;28;20365;-65
2022/06/22 03:30:43;;;;;;;19.42;5.65;;;;;;;18.68;90.68;95265.81;5069091;28;20034;-65
2022/06/22 03:33:16;;;;;;;25.98;5.30;;;;;;;18.70;90.33;95265.59;5067758;28;20530;-65
2022/06/22 03:35:47;;;;;;;19.15;5.93;;;;;;;18.76;89.38;95270.13;5051558;28;20478;-66
2022/06/22 03:38:18;;;;;;;22.08;5.78;;;;;;;18.84;88.72;95269.91;5069631;28;20025;-65
2022/06/22 03:40:50;;;;;;;23.13;5.70;;;;;;;18.79;89.42;95271.53;5068040;28;20499;-65
2022/06/22 03:43:28;;;;;;;19.63;6.25;;;;;;;18.75;89.48;95279.16;5069147;28;20372;-65
2022/06/22 03:46:04;;;;;;;24.20;8.07;;;;;;;18.73;89.05;95286.53;5069432;28;20028;-65
2022/06/22 03:48:36;;;;;;;22.08;6.80;;;;;;;18.76;89.24;95299.44;5068941;28;20442;-65
2022/06/22 03:51:14;;;;;;;20.25;8.10;;;;;;;18.83;90.93;95297.59;5069287;28;20040;-66
2022/06/22 03:53:55;;;;;;;22.30;6.60;;;;;;;18.88;88.85;95303.13;5069837;28;20032;-65
2022/06/22 03:56:24;;;;;;;20.88;5.40;;;;;;;18.94;89.22;95298.84;5068841;28;20529;-65
2022/06/22 03:58:52;;;;;;;16.73;4.85;;;;;;;18.97;88.62;95305.63;5069297;28;20360;-66
2022/06/22 04:01:21;;;;;;;28.20;5.90;;;;;;;19.02;87.64;95316.53;5069128;28;20555;-65
2022/06/22 04:03:47;;;;;;;21.35;5.80;;;;;;;19.04;88.14;95317.97;5069610;28;20154;-64
2022/06/22 04:06:27;;;;;;;26.08;7.07;;;;;;;19.03;90.56;95324.34;5069227;28;20104;-65
2022/06/22 04:08:53;;;;;;;27.08;9.43;;;;;;;18.90;89.60;95327.78;5069303;28;20017;-64
2022/06/22 04:11:40;;;;;;;27.20;8.85;;;;;;;18.82;90.16;95335.97;5069217;28;20555;-65
2022/06/22 04:14:23;;;;;;;27.13;10.25;;;;;;;18.80;90.72;95348.69;5069273;28;20025;-65
2022/06/22 04:16:58;;;;;;;31.02;8.45;;;;;;;18.79;90.90;95356.88;5055867;28;20090;-65
2022/06/22 04:19:29;;;;;;;28.88;9.50;;;;;;;18.68;92.69;95361.78;5069270;28;20032;-65
2022/06/22 04:22:10;;;;;;;32.67;10.52;;;;;;;18.63;92.06;95364.22;5066877;28;20495;-65
2022/06/22 04:24:46;;;;;;;32.28;8.15;;;;;;;18.78;91.16;95373.88;5072742;28;20020;-64
2022/06/22 04:27:18;;;;;;;30.70;9.38;;;;;;;18.75;91.26;95385.78;5073232;28;20483;-64
2022/06/22 04:30:02;;;;;;;22.30;6.75;;;;;;;18.70;92.01;95393.59;5063899;28;20025;-64
2022/06/22 04:32:36;;;;;;;20.50;5.80;;;;;;;18.61;94.44;95400.94;5072849;28;20391;-64
2022/06/22 04:35:20;;;;;;;24.58;6.95;;;;;;;18.75;93.33;95405.28;5072880;28;20103;-64
2022/06/22 04:37:55;;;;;;;24.00;5.60;;;;;;;18.65;94.17;95409.34;5049725;28;20032;-64
2022/06/22 04:40:52;;;;;;;27.67;6.15;;;;;;;18.49;96.71;95429.16;5072779;28;20023;-63
2022/06/22 04:43:18;;;;;;;19.83;5.53;;;;;;;18.28;98.13;95420.25;5050656;28;20036;-63
2022/06/22 04:45:46;;;;;;;21.50;6.50;;;;;;;18.18;100.00;95429.44;5071327;28;20475;-63
2022/06/22 04:48:22;;;;;;;20.35;5.53;;;;;;;18.27;100.00;95435.44;5072028;28;20028;-63
2022/06/22 04:50:51;;;;;;;28.73;6.93;;;;;;;18.21;99.51;95430.06;5072385;28;20028;-63
2022/06/22 04:53:43;;;;;;;18.98;5.80;;;;;;;18.26;98.97;95433.78;5072452;28;20090;-64
2022/06/22 04:56:27;;;;;;;28.67;6.53;;;;;;;18.29;98.00;95436.06;5070052;28;20089;-64
2022/06/22 04:58:56;;;;;;;23.73;6.30;;;;;;;18.16;99.08;95446.63;5072391;28;20054;-63
2022/06/22 05:01:30;;;;;;;27.77;6.40;;;;;;;18.08;100.00;95452.13;5072031;28;20031;-67
2022/06/22 05:04:04;;;;;;;22.33;6.15;;;;;;;18.33;99.56;95455.94;5072268;28;20048;-68
2022/06/22 05:07:03;;;;;;;23.80;6.10;;;;;;;18.35;99.14;95455.78;5071557;28;20036;-67
2022/06/22 05:09:40;;;;;;;22.90;6.50;;;;;;;18.40;99.50;95464.00;5054939;28;20016;-67
2022/06/22 05:12:13;;;;;;;21.67;6.35;;;;;;;18.14;100.00;95467.31;5072079;28;20032;-67
2022/06/22 05:14:40;;;;;;;22.60;5.93;;;;;;;18.01;100.00;95470.69;5071869;28;20107;-67
2022/06/22 05:17:16;;;;;;;20.65;5.68;;;;;;;17.95;100.00;95468.78;5052795;28;20070;-67
2022/06/22 05:20:13;;;;;;;22.52;6.25;;;;;;;17.98;100.00;95468.41;5071728;28;20028;-67
2022/06/22 05:22:38;;;;;;;28.77;8.10;;;;;;;18.10;100.00;95455.41;5064870;28;20560;-68
2022/06/22 05:25:06;;;;;;;21.05;7.68;;;;;;;18.01;100.00;95450.22;5071170;28;20048;-69
2022/06/22 05:27:45;;;;;;;20.38;7.05;;;;;;;17.98;100.00;95458.56;5069903;28;20021;-68
2022/06/22 05:30:11;;;;;;;34.97;9.65;;;;;;;17.87;100.00;95451.13;5066260;28;20021;-68
2022/06/22 05:32:47;;;;;;;22.17;7.03;;;;;;;17.84;100.00;95454.16;5071822;28;20063;-69
2022/06/22 05:35:18;;;;;;;25.60;6.93;;;;;;;17.85;100.00;95447.84;5071920;28;20028;-69
2022/06/22 05:37:47;;;;;;;23.27;7.20;;;;;;;17.87;100.00;95448.47;5071794;28;20028;-69
2022/06/22 05:40:14;;;;;;;25.02;7.05;;;;;;;17.90;100.00;95445.41;5071664;28;20032;-69
2022/06/22 05:42:39;;;;;;;22.65;6.93;;;;;;;17.85;100.00;95447.84;5071429;28;20032;-69
2022/06/22 05:45:14;;;;;;;25.90;6.18;;;;;;;17.86;100.00;95444.16;5071448;28;20031;-71
2022/06/22 05:47:40;;;;;;;20.55;6.40;;;;;;;17.92;100.00;95448.69;5071786;28;20036;-72
2022/06/22 05:50:21;;;;;;;29.45;8.43;;;;;;;18.00;100.00;95455.72;5071643;28;20024;-73
2022/06/22 05:52:59;;;;;;;19.75;6.60;;;;;;;17.99;100.00;95460.19;5070241;28;20044;-73
2022/06/22 05:55:36;;;;;;;20.63;7.32;;;;;;;17.92;100.00;95463.84;5053568;28;20472;-72
2022/06/22 05:58:08;;;;;;;24.75;8.63;;;;;;;17.91;100.00;95473.66;5066170;28;20033;-73
2022/06/22 06:00:48;;;;;;;28.77;7.88;;;;;;;17.97;100.00;95467.56;5071254;28;20059;-72
2022/06/22 06:04:01;;;;;;;22.27;6.13;;;;;;;18.00;100.00;95467.19;5041739;28;20025;-71
2022/06/22 06:06:31;;;;;;;28.17;6.70;;;;;;;18.07;100.00;95461.94;5005967;28;20048;-72
2022/06/22 06:09:03;;;;;;;27.65;6.45;;;;;;;18.07;100.00;95455.78;5059762;28;20135;-72
2022/06/22 06:11:53;;;;;;;22.00;6.70;;;;;;;18.01;100.00;95431.56;5070089;28;20051;-73
2022/06/22 06:14:26;;;;;;;21.88;7.57;;;;;;;18.01;100.00;95431.56;5066891;28;20090;-73
2022/06/22 06:16:54;;;;;;;27.40;7.35;;;;;;;18.11;100.00;95446.38;5064372;28;20045;-72
2022/06/22 06:19:23;;;;;;;24.67;6.53;;;;;;;18.09;100.00;95432.44;5069452;28;20052;-72
2022/06/22 06:21:54;;;;;;;27.95;6.55;;;;;;;18.08;100.00;95425.47;5069881;28;20115;-71
2022/06/22 06:24:27;;;;;;;25.10;6.88;;;;;;;18.06;100.00;95438.97;5066685;28;20078;-71
2022/06/22 06:29:52;;;;;;;24.83;7.03;;;;;;;17.85;100.00;95469.94;5069487;28;20036;-71
2022/06/22 06:32:26;;;;;;;23.35;6.35;;;;;;;17.87;100.00;95477.75;5070641;28;20043;-70
2022/06/22 06:35:12;;;;;;;26.80;7.00;;;;;;;17.95;100.00;95477.59;5040086;28;20399;-69
2022/06/22 06:37:44;;;;;;;25.30;6.95;;;;;;;17.82;100.00;95480.16;5061854;28;20033;-67
2022/06/22 06:40:22;;;;;;;25.38;6.20;;;;;;;17.77;100.00;95467.44;5070378;28;20033;-68
2022/06/22 06:43:17;;;;;;;22.33;7.18;;;;;;;17.83;100.00;95473.81;5065453;28;20495;-69
2022/06/22 06:45:42;;;;;;;28.40;6.68;;;;;;;17.88;100.00;95477.53;5065227;28;20086;-68
2022/06/22 06:48:16;;;;;;;22.95;6.95;;;;;;;17.97;100.00;95478.22;5066312;28;20492;-68
2022/06/22 06:50:49;;;;;;;27.80;7.65;;;;;;;17.99;100.00;95465.53;5068892;28;20091;-69
2022/06/22 06:53:28;;;;;;;27.60;7.68;;;;;;;18.08;100.00;95457.44;5069999;28;20067;-69
2022/06/22 06:56:03;;;;;;;26.95;6.82;;;;;;;18.15;100.00;95469.78;5070417;28;20031;-69
2022/06/22 06:59:00;;;;;;;18.20;6.22;;;;;;;18.08;100.00;95463.56;5070050;28;20085;-69
2022/06/22 07:01:35;;;;;;;22.65;6.22;;;;;;;17.99;100.00;95454.06;5049032;28;20033;-70
2022/06/22 07:04:07;;;;;;;18.92;6.32;;;;;;;18.11;100.00;95443.72;5067149;28;20025;-68
2022/06/22 07:06:33;;;;;;;25.73;6.93;;;;;;;18.16;100.00;95443.97;5057927;28;20531;-68
2022/06/22 07:09:22;;;;;;;28.50;8.15;;;;;;;18.14;100.00;95465.47;5068870;28;20033;-69
2022/06/22 07:11:51;;;;;;;26.65;7.15;;;;;;;18.09;100.00;95477.72;5065491;28;20051;-70
2022/06/22 07:14:28;;;;;;;19.48;6.72;;;;;;;18.01;100.00;95468.00;5068033;28;21040;-69
2022/06/22 07:16:58;;;;;;;20.50;6.07;;;;;;;17.99;100.00;95470.06;5062099;28;20423;-69
2022/06/22 07:19:33;;;;;;;25.40;6.70;;;;;;;18.08;100.00;95458.25;5067138;28;20024;-69
2022/06/22 07:22:10;;;;;;;31.60;5.93;;;;;;;18.15;100.00;95464.47;5056154;28;20462;-69
2022/06/22 07:25:04;;;;;;;19.08;6.70;;;;;;;18.18;100.00;95474.72;5064881;28;20098;-70
2022/06/22 07:27:52;;;;;;;21.58;6.50;;;;;;;18.30;100.00;95460.84;5059960;28;20500;-69
2022/06/22 07:30:25;;;;;;;17.75;6.53;;;;;;;18.27;100.00;95456.75;5067669;28;20095;-69
2022/06/22 07:33:07;;;;;;;26.75;7.25;;;;;;;18.35;100.00;95445.09;5065777;28;20056;-69
2022/06/22 07:35:48;;;;;;;20.88;6.43;;;;;;;18.36;100.00;95459.25;5055210;28;20129;-69
2022/06/22 07:38:52;;;;;;;17.48;6.38;;;;;;;18.51;100.00;95451.13;5064769;28;20073;-69
2022/06/22 07:41:22;;;;;;;24.27;7.05;;;;;;;18.65;100.00;95449.31;5068104;28;20101;-69
2022/06/22 07:44:07;;;;;;;20.35;7.15;;;;;;;18.72;100.00;95443.00;5068626;28;20040;-69
2022/06/22 07:46:39;;;;;;;24.35;7.82;;;;;;;18.87;100.00;95429.50;5060855;28;20054;-70
2022/06/22 07:49:12;;;;;;;23.20;7.07;;;;;;;19.00;100.00;95425.28;5062010;28;20111;-70
2022/06/22 07:51:49;;;;;;;18.65;6.53;;;;;;;19.15;100.00;95411.75;5066224;28;20039;-70
2022/06/22 07:54:32;;;;;;;18.85;5.32;;;;;;;19.27;100.00;95406.66;5067645;28;20013;-69
2022/06/22 07:57:16;;;;;;;24.90;6.47;;;;;;;19.31;100.00;95411.38;5068858;28;20020;-69
2022/06/22 07:59:55;;;;;;;27.95;6.85;;;;;;;19.20;100.00;95405.81;5071555;28;20032;-70
2022/06/22 08:02:25;;;;;;;24.67;7.18;;;;;;;19.20;100.00;95397.81;5066812;28;20104;-70
2022/06/22 08:05:04;;;;;;;20.63;10.07;;;;;;;19.40;100.00;95390.66;5068854;28;20039;-70
2022/06/22 08:07:46;;;;;;;39.95;22.77;;;;;;;19.57;100.00;95401.72;5070129;28;20098;-69
2022/06/22 08:10:44;;;;;;;27.70;16.17;;;;;;;19.67;99.80;95412.00;5069641;28;20108;-68
2022/06/22 08:13:18;;;;;;;22.02;6.90;;;;;;;19.81;99.69;95409.34;5024165;28;20456;-70
2022/06/22 08:15:52;;;;;;;20.90;5.97;;;;;;;19.79;99.69;95419.41;5071015;28;20040;-70
2022/06/22 08:18:19;;;;;;;19.15;7.20;;;;;;;19.82;99.86;95416.31;5071591;28;20028;-70
2022/06/22 08:20:48;;;;;;;20.08;6.28;;;;;;;19.90;99.30;95429.44;5071087;28;20032;-70
2022/06/22 08:23:18;;;;;;;21.23;6.05;;;;;;;20.02;97.46;95432.34;5067000;28;20034;-70
2022/06/22 08:25:45;;;;;;;20.08;5.85;;;;;;;20.31;95.95;95432.91;5070707;28;20032;-70
2022/06/22 08:28:15;;;;;;;17.52;6.00;;;;;;;20.74;93.52;95442.22;5071241;28;20028;-70
2022/06/22 08:30:41;;;;;;;20.38;6.57;;;;;;;20.97;91.42;95432.91;5071085;28;20395;-69
2022/06/22 08:33:11;;;;;;;26.25;7.68;;;;;;;20.88;87.68;95427.78;5070835;28;20028;-69
2022/06/22 08:35:49;;;;;;;19.42;6.22;;;;;;;20.71;89.51;95430.09;5056752;28;20043;-70
2022/06/22 08:38:38;;;;;;;19.85;5.72;;;;;;;20.70;90.91;95428.44;5069497;28;20491;-69
2022/06/22 08:41:04;;;;;;;30.15;7.68;;;;;;;20.44;90.20;95426.69;5066676;28;20028;-68
2022/06/22 08:43:45;;;;;;;22.63;7.20;;;;;;;20.24;91.14;95421.41;5070581;28;20020;-70
2022/06/22 08:46:25;;;;;;;28.67;6.38;;;;;;;20.72;90.86;95417.56;5066872;28;20459;-71
2022/06/22 08:49:19;;;;;;;24.65;7.60;;;;;;;22.04;85.01;95408.03;5071299;28;20028;-70
2022/06/22 08:52:03;;;;;;;22.98;6.20;;;;;;;23.10;78.50;95400.00;5049269;28;20074;-69
2022/06/22 08:55:06;;;;;;;22.83;5.88;;;;;;;24.04;75.00;95387.81;5070828;28;20031;-70
2022/06/22 08:57:52;;;;;;;24.05;7.00;;;;;;;24.65;73.42;95386.63;5068056;28;20450;-70
2022/06/22 09:00:39;;;;;;;29.50;5.93;;;;;;;24.93;70.13;95371.59;5070005;28;20495;-70
2022/06/22 09:03:29;;;;;;;23.23;6.53;;;;;;;25.28;69.16;95359.81;5070386;28;20044;-70
2022/06/22 09:06:16;;;;;;;27.13;6.72;;;;;;;25.52;67.03;95357.00;5067374;28;20484;-69
2022/06/22 09:08:49;;;;;;;22.13;6.32;;;;;;;25.64;67.03;95336.19;5068830;28;20115;-69
2022/06/22 09:11:31;;;;;;;24.48;6.50;;;;;;;25.57;65.87;95343.63;5070138;28;20686;-70
2022/06/22 09:14:14;;;;;;;28.10;6.60;;;;;;;25.96;66.59;95332.84;5070078;28;20501;-69
2022/06/22 09:17:10;;;;;;;19.02;5.93;;;;;;;25.97;62.90;95339.09;5070909;28;20049;-69
2022/06/22 09:19:55;;;;;;;18.55;5.45;;;;;;;26.45;60.53;95334.88;5067071;28;20675;-69
2022/06/22 09:22:50;;;;;;;20.63;5.43;;;;;;;26.70;62.36;95338.94;5068447;28;20043;-69
2022/06/22 09:25:28;;;;;;;;;;;;;;;26.69;60.96;95337.28;5069082;28;20039;-69
2022/06/22 09:27:53;;;;;;;22.13;5.72;;;;;;;27.04;60.79;95340.66;5071206;28;20003;-69
2022/06/22 09:30:28;;;;;;;16.97;6.40;;;;;;;26.97;60.56;95335.47;5070033;28;20103;-69
2022/06/22 09:33:02;;;;;;;22.02;5.90;;;;;;;27.31;57.35;95339.84;5068250;28;20325;-69
2022/06/22 09:35:48;;;;;;;19.60;4.80;;;;;;;27.43;56.68;95343.16;5071417;28;20024;-68
2022/06/22 09:38:47;;;;;;;12.65;4.30;;;;;;;26.97;57.86;95345.44;5052266;28;20533;-68
2022/06/22 09:41:18;;;;;;;22.88;5.32;;;;;;;26.92;58.46;95337.31;5066792;28;20476;-70
2022/06/22 09:44:03;;;;;;;25.15;5.43;;;;;;;27.43;57.44;95347.78;5065855;28;20052;-69
2022/06/22 09:46:38;;;;;;;21.45;5.53;;;;;;;27.50;57.32;95350.22;5071334;28;20020;-69
2022/06/22 09:49:10;;;;;;;17.15;5.70;;;;;;;27.82;54.95;95349.44;5070762;28;20028;-70
2022/06/22 09:52:09;;;;;;;19.63;5.45;;;;;;;27.86;51.99;95356.78;5070827;28;20484;-70
2022/06/22 09:57:30;;;;;;;18.73;5.90;;;;;;;27.60;56.34;95358.47;5069253;28;20505;-70
2022/06/22 10:00:18;;;;;;;18.85;5.47;;;;;;;28.85;52.28;95352.69;5067512;28;20023;-69
2022/06/22 10:03:12;;;;;;;17.50;6.22;;;;;;;28.47;52.41;95345.72;5064949;28;20162;-70
2022/06/22 10:05:46;;;;;;;19.98;4.85;;;;;;;29.08;50.40;95341.59;5069065;28;20013;-69
2022/06/22 10:08:30;;;;;;;19.70;5.03;;;;;;;28.71;53.05;95344.19;5069271;28;20036;-68
2022/06/22 10:11:01;;;;;;;24.40;5.97;;;;;;;29.27;49.63;95342.72;5069161;28;20376;-68
2022/06/22 10:13:56;;;;;;;20.77;5.68;;;;;;;29.20;50.22;95341.34;5069430;28;20484;-69
2022/06/22 10:16:36;;;;;;;21.13;6.30;;;;;;;29.54;50.16;95349.00;5069313;28;20052;-69
2022/06/22 10:19:20;;;;;;;20.35;5.50;;;;;;;29.58;48.64;95333.81;5069048;28;20034;-68
2022/06/22 10:21:55;;;;;;;21.87;5.70;;;;;;;29.28;49.05;95335.38;5065889;28;20032;-68
2022/06/22 10:24:20;;;;;;;;;;;;;;;29.41;49.15;95329.47;5065976;28;20754;-68
2022/06/22 10:26:51;;;;;;;18.03;5.57;;;;;;;29.63;48.28;95324.88;5069659;28;20045;-69
2022/06/22 10:29:38;;;;;;;19.63;5.63;;;;;;;29.62;47.96;95317.78;5070752;28;20021;-69
2022/06/22 10:32:23;;;;;;;29.90;6.30;;;;;;;29.58;49.29;95304.78;5070980;28;20387;-68
2022/06/22 10:35:00;;;;;;;20.33;5.43;;;;;;;29.61;47.54;95302.59;5070713;28;20488;-68
2022/06/22 10:37:35;;;;;;;19.75;6.00;;;;;;;29.31;48.21;95307.78;5070553;28;20107;-68
2022/06/22 10:46:32;;;;;;;22.30;5.28;;;;;;;28.78;48.95;95280.88;5057174;28;20407;-68
2022/06/22 10:49:15;;;;;;;22.00;5.05;;;;;;;28.74;50.44;95270.56;5061927;28;20028;-68
2022/06/22 10:51:54;;;;;;;21.03;5.33;;;;;;;29.21;47.46;95264.38;5068619;28;20024;-68
2022/06/22 10:54:37;;;;;;;17.75;5.35;;;;;;;29.70;45.89;95254.88;5068768;28;20447;-69
2022/06/22 10:57:11;;;;;;;23.38;6.00;;;;;;;30.33;44.69;95252.78;5068776;28;20096;-68
2022/06/22 10:59:54;;;;;;;18.50;4.85;;;;;;;31.14;43.12;95241.69;5068958;28;20025;-67
2022/06/22 11:02:57;;;;;;;23.25;5.65;;;;;;;31.05;42.42;95236.03;5068624;28;20051;-68
2022/06/22 11:05:47;;;;;;;20.92;5.85;;;;;;;30.95;42.76;95234.25;5068080;28;20459;-68
2022/06/22 11:08:40;;;;;;;22.92;5.22;;;;;;;30.99;43.10;95229.03;5068838;28;20032;-67
2022/06/22 11:11:20;;;;;;;19.52;5.35;;;;;;;31.04;41.33;95229.00;5064997;28;20028;-69
2022/06/22 11:14:07;;;;;;;20.42;5.90;;;;;;;31.40;41.17;95217.84;5066838;28;20039;-68
2022/06/22 11:16:46;;;;;;;19.85;4.95;;;;;;;31.68;40.73;95220.81;5067758;28;20247;-67
2022/06/22 11:19:39;;;;;;;13.25;4.43;;;;;;;31.43;40.88;95219.97;5068467;28;20060;-67
2022/06/22 11:22:17;;;;;;;26.90;5.82;;;;;;;31.54;42.02;95201.66;5066420;28;20025;-68
2022/06/22 11:25:12;;;;;;;15.88;4.93;;;;;;;31.65;41.74;95201.56;5068339;28;20032;-68
2022/06/22 11:33:13;;;;;;;17.45;5.22;;;;;;;31.67;42.53;95200.16;5068559;28;20128;-69
2022/06/22 11:35:39;;;;;;;19.77;4.67;;;;;;;31.32;41.95;95193.19;5067039;28;20115;-69
2022/06/22 11:38:10;;;;;;;13.93;4.65;;;;;;;31.38;42.05;95192.84;5060935;28;20278;-69
2022/06/22 11:40:51;;;;;;;15.48;4.97;;;;;;;31.89;40.99;95190.69;5064913;28;20028;-68
2022/06/22 11:43:22;;;;;;;15.13;4.93;;;;;;;31.52;40.79;95187.53;5065148;28;20056;-69
2022/06/22 11:46:20;;;;;;;17.67;5.38;;;;;;;31.69;41.94;95184.34;5067901;28;20503;-70
2022/06/22 11:48:48;;;;;;;15.93;5.18;;;;;;;32.21;40.50;95186.47;5067399;28;20025;-69
2022/06/22 11:51:41;;;;;;;20.05;5.25;;;;;;;31.05;43.40;95184.41;5068091;28;20024;-71
2022/06/22 11:54:33;;;;;;;28.92;5.35;;;;;;;30.98;42.58;95167.63;5060841;28;20029;-70
2022/06/22 11:57:05;;;;;;;21.85;5.40;;;;;;;30.90;44.59;95162.81;5058965;28;20123;-69
2022/06/22 11:59:30;;;;;;;18.77;5.47;;;;;;;31.01;44.44;95145.31;5066515;28;20029;-69
2022/06/22 12:02:05;;;;;;;19.97;4.93;;;;;;;31.61;41.55;95146.09;5064795;28;20033;-71
2022/06/22 12:05:04;;;;;;;23.77;5.53;;;;;;;30.79;42.23;95141.16;5066461;28;20362;-71
2022/06/22 12:07:54;;;;;;;26.73;6.15;;;;;;;30.26;42.40;95139.06;5055517;28;20581;-70
2022/06/22 12:10:41;;;;;;;20.63;5.70;;;;;;;30.36;44.21;95141.72;5058276;28;20028;-70
2022/06/22 12:13:09;;;;;;;16.48;5.18;;;;;;;31.06;42.18;95133.59;5068418;28;20436;-70
2022/06/22 12:15:34;;;;;;;23.95;5.00;;;;;;;31.91;39.65;95134.03;5068535;28;20131;-70
2022/06/22 12:18:24;;;;;;;20.77;5.68;;;;;;;32.25;38.24;95133.06;5068059;28;20199;-70
2022/06/22 12:21:08;;;;;;;17.45;5.05;;;;;;;32.33;37.99;95149.84;5068858;28;20040;-70
2022/06/22 12:23:59;;;;;;;19.33;5.45;;;;;;;31.30;38.68;95158.13;5067376;28;20408;-70
2022/06/22 12:26:52;;;;;;;27.15;5.47;;;;;;;31.14;38.87;95150.09;5063740;28;20033;-71
2022/06/22 12:29:59;;;;;;;23.00;5.88;;;;;;;30.05;40.56;95133.75;5058155;28;20040;-70
2022/06/22 12:32:34;;;;;;;24.20;5.32;;;;;;;29.31;42.96;95147.84;5031342;28;20044;-70